sensor_id;sensor_type;location;lat;lon;timestamp;temperature;humidity
47606;DHT22;55448;51.330;4.946;2022-09-09T00:04:13;15.60;99.90
47606;DHT22;55448;51.330;4.946;2022-09-09T00:09:16;15.60;99.90
47606;DHT22;55448;51.330;4.946;2022-09-09T00:11:51;15.50;99.90
47606;DHT22;55448;51.330;4.946;2022-09-09T00:16:43;15.50;99.90
47606;DHT22;55448;51.330;4.946;2022-09-09T00:22:00;15.80;99.90
47606;DHT22;55448;51.330;4.946;2022-09-09T00:27:14;15.70;99.90
47606;DHT22;55448;51.330;4.946;2022-09-09T00:29:54;15.40;99.90
47606;DHT22;55448;51.330;4.946;2022-09-09T00:32:21;15.30;99.90
47606;DHT22;55448;51.330;4.946;2022-09-09T00:34:51;15.30;99.90
47606;DHT22;55448;51.330;4.946;2022-09-09T00:37:18;15.30;99.90
47606;DHT22;55448;51.330;4.946;2022-09-09T00:39:47;15.30;99.90
47606;DHT22;55448;51.330;4.946;2022-09-09T00:42:58;15.30;99.90
47606;DHT22;55448;51.330;4.946;2022-09-09T00:45:50;15.40;99.90
47606;DHT22;55448;51.330;4.946;2022-09-09T00:47:52;15.40;99.90
47606;DHT22;55448;51.330;4.946;2022-09-09T00:55:17;15.10;99.90
47606;DHT22;55448;51.330;4.946;2022-09-09T00:57:44;15.10;99.90
47606;DHT22;55448;51.330;4.946;2022-09-09T01:05:20;15.10;99.90
47606;DHT22;55448;51.330;4.946;2022-09-09T01:07:47;15.10;99.90
47606;DHT22;55448;51.330;4.946;2022-09-09T01:10:17;15.10;99.90
47606;DHT22;55448;51.330;4.946;2022-09-09T01:12:46;15.00;99.90
47606;DHT22;55448;51.330;4.946;2022-09-09T01:15:14;15.00;99.90
47606;DHT22;55448;51.330;4.946;2022-09-09T01:17:59;14.90;99.90
47606;DHT22;55448;51.330;4.946;2022-09-09T01:20:31;14.90;99.90
47606;DHT22;55448;51.330;4.946;2022-09-09T01:28:30;15.00;99.90
47606;DHT22;55448;51.330;4.946;2022-09-09T01:30:56;15.00;99.90
47606;DHT22;55448;51.330;4.946;2022-09-09T01:33:22;15.00;99.90
47606;DHT22;55448;51.330;4.946;2022-09-09T01:35:49;15.00;99.90
47606;DHT22;55448;51.330;4.946;2022-09-09T01:38:25;15.00;99.90
47606;DHT22;55448;51.330;4.946;2022-09-09T01:40:51;14.90;99.90
47606;DHT22;55448;51.330;4.946;2022-09-09T01:43:18;14.90;99.90
47606;DHT22;55448;51.330;4.946;2022-09-09T01:45:44;14.90;99.90
47606;DHT22;55448;51.330;4.946;2022-09-09T01:48:12;14.80;99.90
47606;DHT22;55448;51.330;4.946;2022-09-09T01:50:37;14.80;99.90
47606;DHT22;55448;51.330;4.946;2022-09-09T01:53:03;14.90;99.90
47606;DHT22;55448;51.330;4.946;2022-09-09T01:55:33;14.90;99.90
47606;DHT22;55448;51.330;4.946;2022-09-09T01:58:09;14.90;99.90
47606;DHT22;55448;51.330;4.946;2022-09-09T02:00:37;14.90;99.90
47606;DHT22;55448;51.330;4.946;2022-09-09T02:03:27;15.00;99.90
47606;DHT22;55448;51.330;4.946;2022-09-09T02:08:45;14.90;99.90
47606;DHT22;55448;51.330;4.946;2022-09-09T02:11:15;14.90;99.90
47606;DHT22;55448;51.330;4.946;2022-09-09T02:13:43;15.00;99.90
47606;DHT22;55448;51.330;4.946;2022-09-09T02:16:12;15.00;99.90
47606;DHT22;55448;51.330;4.946;2022-09-09T02:18:41;14.90;99.90
47606;DHT22;55448;51.330;4.946;2022-09-09T02:21:08;15.00;99.90
47606;DHT22;55448;51.330;4.946;2022-09-09T02:23:36;14.90;99.90
47606;DHT22;55448;51.330;4.946;2022-09-09T02:26:04;15.00;99.90
47606;DHT22;55448;51.330;4.946;2022-09-09T02:28:31;15.00;99.90
47606;DHT22;55448;51.330;4.946;2022-09-09T02:30:57;15.10;99.90
47606;DHT22;55448;51.330;4.946;2022-09-09T02:33:24;15.00;99.90
47606;DHT22;55448;51.330;4.946;2022-09-09T02:35:51;15.00;99.90
47606;DHT22;55448;51.330;4.946;2022-09-09T02:38:16;15.00;99.90
47606;DHT22;55448;51.330;4.946;2022-09-09T02:40:42;14.90;99.90
47606;DHT22;55448;51.330;4.946;2022-09-09T02:43:08;14.90;99.90
47606;DHT22;55448;51.330;4.946;2022-09-09T02:45:58;15.00;99.90
47606;DHT22;55448;51.330;4.946;2022-09-09T02:51:00;14.90;99.90
47606;DHT22;55448;51.330;4.946;2022-09-09T02:53:32;14.90;99.90
47606;DHT22;55448;51.330;4.946;2022-09-09T02:58:28;14.90;99.90
47606;DHT22;55448;51.330;4.946;2022-09-09T03:00:54;14.90;99.90
47606;DHT22;55448;51.330;4.946;2022-09-09T03:03:20;14.90;99.90
47606;DHT22;55448;51.330;4.946;2022-09-09T03:05:47;14.90;99.90
47606;DHT22;55448;51.330;4.946;2022-09-09T03:08:13;14.90;99.90
47606;DHT22;55448;51.330;4.946;2022-09-09T03:10:38;14.90;99.90
47606;DHT22;55448;51.330;4.946;2022-09-09T03:13:04;14.90;99.90
47606;DHT22;55448;51.330;4.946;2022-09-09T03:15:33;15.00;99.90
47606;DHT22;55448;51.330;4.946;2022-09-09T03:17:59;15.00;99.90
47606;DHT22;55448;51.330;4.946;2022-09-09T03:20:25;15.00;99.90
47606;DHT22;55448;51.330;4.946;2022-09-09T03:22:54;15.00;99.90
47606;DHT22;55448;51.330;4.946;2022-09-09T03:25:20;15.00;99.90
47606;DHT22;55448;51.330;4.946;2022-09-09T03:27:48;15.10;99.90
47606;DHT22;55448;51.330;4.946;2022-09-09T03:30:14;15.10;99.90
47606;DHT22;55448;51.330;4.946;2022-09-09T03:32:40;15.10;99.90
47606;DHT22;55448;51.330;4.946;2022-09-09T03:35:06;15.00;99.90
47606;DHT22;55448;51.330;4.946;2022-09-09T03:37:32;15.10;99.90
47606;DHT22;55448;51.330;4.946;2022-09-09T03:39:57;15.10;99.90
47606;DHT22;55448;51.330;4.946;2022-09-09T03:42:23;15.00;99.90
47606;DHT22;55448;51.330;4.946;2022-09-09T03:44:48;15.00;99.90
47606;DHT22;55448;51.330;4.946;2022-09-09T03:47:16;15.10;99.90
47606;DHT22;55448;51.330;4.946;2022-09-09T03:49:42;15.10;99.90
47606;DHT22;55448;51.330;4.946;2022-09-09T03:52:08;15.10;99.90
47606;DHT22;55448;51.330;4.946;2022-09-09T03:54:34;15.00;99.90
47606;DHT22;55448;51.330;4.946;2022-09-09T03:57:00;15.10;99.90
47606;DHT22;55448;51.330;4.946;2022-09-09T03:59:25;15.20;99.90
47606;DHT22;55448;51.330;4.946;2022-09-09T04:01:51;15.30;99.90
47606;DHT22;55448;51.330;4.946;2022-09-09T04:04:17;15.40;99.90
47606;DHT22;55448;51.330;4.946;2022-09-09T04:06:42;15.40;99.90
47606;DHT22;55448;51.330;4.946;2022-09-09T04:09:08;15.40;99.90
47606;DHT22;55448;51.330;4.946;2022-09-09T04:11:33;15.40;99.90
47606;DHT22;55448;51.330;4.946;2022-09-09T04:13:59;15.30;99.90
47606;DHT22;55448;51.330;4.946;2022-09-09T04:16:24;15.30;99.90
47606;DHT22;55448;51.330;4.946;2022-09-09T04:18:50;15.20;99.90
47606;DHT22;55448;51.330;4.946;2022-09-09T04:21:16;15.20;99.90
47606;DHT22;55448;51.330;4.946;2022-09-09T04:23:42;15.20;99.90
47606;DHT22;55448;51.330;4.946;2022-09-09T04:26:08;15.30;99.90
47606;DHT22;55448;51.330;4.946;2022-09-09T04:28:35;15.20;99.90
47606;DHT22;55448;51.330;4.946;2022-09-09T04:31:04;15.20;99.90
47606;DHT22;55448;51.330;4.946;2022-09-09T04:33:30;15.10;99.90
47606;DHT22;55448;51.330;4.946;2022-09-09T04:35:57;15.10;99.90
47606;DHT22;55448;51.330;4.946;2022-09-09T04:38:22;15.10;99.90
47606;DHT22;55448;51.330;4.946;2022-09-09T04:40:48;15.10;99.90
47606;DHT22;55448;51.330;4.946;2022-09-09T04:43:14;15.20;99.90
47606;DHT22;55448;51.330;4.946;2022-09-09T04:45:43;15.20;99.90
47606;DHT22;55448;51.330;4.946;2022-09-09T04:48:09;15.30;99.90
47606;DHT22;55448;51.330;4.946;2022-09-09T04:50:35;15.20;99.90
47606;DHT22;55448;51.330;4.946;2022-09-09T04:53:04;15.30;99.90
47606;DHT22;55448;51.330;4.946;2022-09-09T04:55:30;15.20;99.90
47606;DHT22;55448;51.330;4.946;2022-09-09T04:57:55;15.30;99.90
47606;DHT22;55448;51.330;4.946;2022-09-09T05:00:23;15.20;99.90
47606;DHT22;55448;51.330;4.946;2022-09-09T05:02:48;15.10;99.90
47606;DHT22;55448;51.330;4.946;2022-09-09T05:05:14;15.10;99.90
47606;DHT22;55448;51.330;4.946;2022-09-09T05:07:39;15.10;99.90
47606;DHT22;55448;51.330;4.946;2022-09-09T05:10:05;15.10;99.90
47606;DHT22;55448;51.330;4.946;2022-09-09T05:12:31;15.10;99.90
47606;DHT22;55448;51.330;4.946;2022-09-09T05:14:57;15.10;99.90
47606;DHT22;55448;51.330;4.946;2022-09-09T05:17:23;15.10;99.90
47606;DHT22;55448;51.330;4.946;2022-09-09T05:19:48;15.10;99.90
47606;DHT22;55448;51.330;4.946;2022-09-09T05:22:18;15.10;99.90
47606;DHT22;55448;51.330;4.946;2022-09-09T05:24:43;15.20;99.90
47606;DHT22;55448;51.330;4.946;2022-09-09T05:27:09;15.20;99.90
47606;DHT22;55448;51.330;4.946;2022-09-09T05:29:37;15.20;99.90
47606;DHT22;55448;51.330;4.946;2022-09-09T05:32:03;15.20;99.90
47606;DHT22;55448;51.330;4.946;2022-09-09T05:34:29;15.20;99.90
47606;DHT22;55448;51.330;4.946;2022-09-09T05:36:54;15.10;99.90
47606;DHT22;55448;51.330;4.946;2022-09-09T05:39:20;15.20;99.90
47606;DHT22;55448;51.330;4.946;2022-09-09T05:41:46;15.20;99.90
47606;DHT22;55448;51.330;4.946;2022-09-09T05:44:11;15.10;99.90
47606;DHT22;55448;51.330;4.946;2022-09-09T05:46:37;15.20;99.90
47606;DHT22;55448;51.330;4.946;2022-09-09T05:49:03;15.20;99.90
47606;DHT22;55448;51.330;4.946;2022-09-09T05:51:30;15.20;99.90
47606;DHT22;55448;51.330;4.946;2022-09-09T05:53:55;15.20;99.90
47606;DHT22;55448;51.330;4.946;2022-09-09T05:56:24;15.20;99.90
47606;DHT22;55448;51.330;4.946;2022-09-09T05:58:53;15.20;99.90
47606;DHT22;55448;51.330;4.946;2022-09-09T06:01:23;15.20;99.90
47606;DHT22;55448;51.330;4.946;2022-09-09T06:03:49;15.30;99.90
47606;DHT22;55448;51.330;4.946;2022-09-09T06:06:16;15.30;99.90
47606;DHT22;55448;51.330;4.946;2022-09-09T06:08:43;15.30;99.90
47606;DHT22;55448;51.330;4.946;2022-09-09T06:11:10;15.50;99.90
47606;DHT22;55448;51.330;4.946;2022-09-09T06:13:36;15.50;99.90
47606;DHT22;55448;51.330;4.946;2022-09-09T06:16:04;15.60;99.90
47606;DHT22;55448;51.330;4.946;2022-09-09T06:18:30;15.60;99.90
47606;DHT22;55448;51.330;4.946;2022-09-09T06:20:56;15.80;99.90
47606;DHT22;55448;51.330;4.946;2022-09-09T06:23:22;15.80;99.90
47606;DHT22;55448;51.330;4.946;2022-09-09T06:25:47;15.90;99.90
47606;DHT22;55448;51.330;4.946;2022-09-09T06:28:14;15.90;99.90
47606;DHT22;55448;51.330;4.946;2022-09-09T06:30:40;15.90;99.90
47606;DHT22;55448;51.330;4.946;2022-09-09T06:33:06;15.90;99.90
47606;DHT22;55448;51.330;4.946;2022-09-09T06:35:32;15.80;99.90
47606;DHT22;55448;51.330;4.946;2022-09-09T06:37:57;15.80;99.90
47606;DHT22;55448;51.330;4.946;2022-09-09T06:40:24;15.70;99.90
47606;DHT22;55448;51.330;4.946;2022-09-09T06:42:49;15.70;99.90
47606;DHT22;55448;51.330;4.946;2022-09-09T06:45:15;15.70;99.90
47606;DHT22;55448;51.330;4.946;2022-09-09T06:47:40;15.90;99.90
47606;DHT22;55448;51.330;4.946;2022-09-09T06:50:07;16.10;99.90
47606;DHT22;55448;51.330;4.946;2022-09-09T06:52:33;16.20;99.90
47606;DHT22;55448;51.330;4.946;2022-09-09T06:54:58;16.30;99.90
47606;DHT22;55448;51.330;4.946;2022-09-09T06:57:24;16.40;99.90
47606;DHT22;55448;51.330;4.946;2022-09-09T06:59:50;16.40;99.90
47606;DHT22;55448;51.330;4.946;2022-09-09T07:02:15;16.50;99.90
47606;DHT22;55448;51.330;4.946;2022-09-09T07:04:41;16.50;99.90
47606;DHT22;55448;51.330;4.946;2022-09-09T07:07:06;16.50;99.90
47606;DHT22;55448;51.330;4.946;2022-09-09T07:09:33;16.60;99.90
47606;DHT22;55448;51.330;4.946;2022-09-09T07:11:59;16.80;99.90
47606;DHT22;55448;51.330;4.946;2022-09-09T07:14:24;16.90;99.90
47606;DHT22;55448;51.330;4.946;2022-09-09T07:16:50;16.80;99.90
47606;DHT22;55448;51.330;4.946;2022-09-09T07:19:16;16.80;99.90
47606;DHT22;55448;51.330;4.946;2022-09-09T07:21:42;17.00;99.90
47606;DHT22;55448;51.330;4.946;2022-09-09T07:24:10;17.00;99.90
47606;DHT22;55448;51.330;4.946;2022-09-09T07:26:36;17.00;99.90
47606;DHT22;55448;51.330;4.946;2022-09-09T07:29:02;17.20;99.90
47606;DHT22;55448;51.330;4.946;2022-09-09T07:31:29;17.30;99.90
47606;DHT22;55448;51.330;4.946;2022-09-09T07:33:55;17.40;99.90
47606;DHT22;55448;51.330;4.946;2022-09-09T07:36:22;17.30;99.90
47606;DHT22;55448;51.330;4.946;2022-09-09T07:38:49;17.30;99.90
47606;DHT22;55448;51.330;4.946;2022-09-09T07:41:20;17.30;99.90
47606;DHT22;55448;51.330;4.946;2022-09-09T07:43:46;17.20;99.90
47606;DHT22;55448;51.330;4.946;2022-09-09T07:46:13;17.10;99.90
47606;DHT22;55448;51.330;4.946;2022-09-09T07:48:43;17.00;99.90
47606;DHT22;55448;51.330;4.946;2022-09-09T07:51:10;17.10;99.90
47606;DHT22;55448;51.330;4.946;2022-09-09T07:53:37;17.10;99.90
47606;DHT22;55448;51.330;4.946;2022-09-09T07:56:04;17.20;99.90
47606;DHT22;55448;51.330;4.946;2022-09-09T07:58:30;17.30;99.90
47606;DHT22;55448;51.330;4.946;2022-09-09T08:00:55;17.30;99.90
47606;DHT22;55448;51.330;4.946;2022-09-09T08:03:21;17.30;99.90
47606;DHT22;55448;51.330;4.946;2022-09-09T08:05:47;17.30;99.90
47606;DHT22;55448;51.330;4.946;2022-09-09T08:08:13;17.60;99.90
47606;DHT22;55448;51.330;4.946;2022-09-09T08:10:38;17.90;99.90
47606;DHT22;55448;51.330;4.946;2022-09-09T08:13:04;18.00;99.90
47606;DHT22;55448;51.330;4.946;2022-09-09T08:15:31;18.20;99.90
47606;DHT22;55448;51.330;4.946;2022-09-09T08:17:57;18.20;99.90
47606;DHT22;55448;51.330;4.946;2022-09-09T08:20:23;18.20;99.90
47606;DHT22;55448;51.330;4.946;2022-09-09T08:22:48;18.00;99.90
47606;DHT22;55448;51.330;4.946;2022-09-09T08:25:15;17.90;99.90
47606;DHT22;55448;51.330;4.946;2022-09-09T08:27:40;17.90;99.90
47606;DHT22;55448;51.330;4.946;2022-09-09T08:30:06;17.90;99.90
47606;DHT22;55448;51.330;4.946;2022-09-09T08:32:32;17.90;99.90
47606;DHT22;55448;51.330;4.946;2022-09-09T08:34:57;18.00;99.90
47606;DHT22;55448;51.330;4.946;2022-09-09T08:37:23;18.10;99.90
47606;DHT22;55448;51.330;4.946;2022-09-09T08:39:48;18.10;99.90
47606;DHT22;55448;51.330;4.946;2022-09-09T08:42:20;18.10;99.90
47606;DHT22;55448;51.330;4.946;2022-09-09T08:44:55;18.00;99.90
47606;DHT22;55448;51.330;4.946;2022-09-09T08:57:53;18.00;99.90
47606;DHT22;55448;51.330;4.946;2022-09-09T09:00:20;18.00;99.90
47606;DHT22;55448;51.330;4.946;2022-09-09T09:02:48;17.80;99.90
47606;DHT22;55448;51.330;4.946;2022-09-09T09:08:08;17.80;99.90
47606;DHT22;55448;51.330;4.946;2022-09-09T09:10:50;17.80;99.90
47606;DHT22;55448;51.330;4.946;2022-09-09T09:13:30;17.90;99.90
47606;DHT22;55448;51.330;4.946;2022-09-09T09:16:00;18.00;99.90
47606;DHT22;55448;51.330;4.946;2022-09-09T09:18:27;18.10;99.90
47606;DHT22;55448;51.330;4.946;2022-09-09T09:20:58;18.10;99.90
47606;DHT22;55448;51.330;4.946;2022-09-09T09:23:29;18.10;99.90
47606;DHT22;55448;51.330;4.946;2022-09-09T09:25:59;18.00;99.90
47606;DHT22;55448;51.330;4.946;2022-09-09T09:28:26;17.70;99.90
47606;DHT22;55448;51.330;4.946;2022-09-09T09:30:59;17.30;99.90
47606;DHT22;55448;51.330;4.946;2022-09-09T09:36:12;17.00;99.90
47606;DHT22;55448;51.330;4.946;2022-09-09T09:38:50;17.00;99.90
47606;DHT22;55448;51.330;4.946;2022-09-09T09:41:16;17.00;99.90
47606;DHT22;55448;51.330;4.946;2022-09-09T09:43:53;17.00;99.90
47606;DHT22;55448;51.330;4.946;2022-09-09T09:46:20;17.10;99.90
47606;DHT22;55448;51.330;4.946;2022-09-09T09:49:01;17.30;99.90
47606;DHT22;55448;51.330;4.946;2022-09-09T09:51:27;17.40;99.90
47606;DHT22;55448;51.330;4.946;2022-09-09T09:53:54;17.40;99.90
47606;DHT22;55448;51.330;4.946;2022-09-09T09:56:26;17.40;99.90
47606;DHT22;55448;51.330;4.946;2022-09-09T09:58:52;17.50;99.90
47606;DHT22;55448;51.330;4.946;2022-09-09T10:01:26;17.60;99.90
47606;DHT22;55448;51.330;4.946;2022-09-09T10:03:59;17.60;99.90
47606;DHT22;55448;51.330;4.946;2022-09-09T10:06:35;17.60;99.90
47606;DHT22;55448;51.330;4.946;2022-09-09T10:09:03;17.60;99.90
47606;DHT22;55448;51.330;4.946;2022-09-09T10:11:31;17.50;99.90
47606;DHT22;55448;51.330;4.946;2022-09-09T10:21:56;17.30;99.90
47606;DHT22;55448;51.330;4.946;2022-09-09T10:27:01;17.60;99.90
47606;DHT22;55448;51.330;4.946;2022-09-09T10:40:02;17.50;99.90
47606;DHT22;55448;51.330;4.946;2022-09-09T10:42:31;17.30;99.90
47606;DHT22;55448;51.330;4.946;2022-09-09T10:52:23;16.80;99.90
47606;DHT22;55448;51.330;4.946;2022-09-09T10:57:25;16.70;99.90
47606;DHT22;55448;51.330;4.946;2022-09-09T10:59:54;16.70;99.90
47606;DHT22;55448;51.330;4.946;2022-09-09T11:02:29;16.60;99.90
47606;DHT22;55448;51.330;4.946;2022-09-09T11:04:57;16.60;99.90
47606;DHT22;55448;51.330;4.946;2022-09-09T11:07:28;16.70;99.90
47606;DHT22;55448;51.330;4.946;2022-09-09T11:09:59;16.70;99.90
47606;DHT22;55448;51.330;4.946;2022-09-09T11:12:26;16.60;99.90
47606;DHT22;55448;51.330;4.946;2022-09-09T11:14:57;16.50;99.90
47606;DHT22;55448;51.330;4.946;2022-09-09T11:17:28;16.60;99.90
47606;DHT22;55448;51.330;4.946;2022-09-09T11:19:55;16.50;99.90
47606;DHT22;55448;51.330;4.946;2022-09-09T11:22:33;16.50;99.90
47606;DHT22;55448;51.330;4.946;2022-09-09T11:32:51;17.00;99.90
47606;DHT22;55448;51.330;4.946;2022-09-09T11:45:34;17.70;99.90
47606;DHT22;55448;51.330;4.946;2022-09-09T11:48:02;17.60;99.90
47606;DHT22;55448;51.330;4.946;2022-09-09T11:50:45;17.70;99.90
47606;DHT22;55448;51.330;4.946;2022-09-09T11:53:19;17.70;99.90
47606;DHT22;55448;51.330;4.946;2022-09-09T11:55:59;17.80;99.90
47606;DHT22;55448;51.330;4.946;2022-09-09T11:58:26;17.80;99.90
47606;DHT22;55448;51.330;4.946;2022-09-09T12:00:52;18.00;99.90
47606;DHT22;55448;51.330;4.946;2022-09-09T12:06:41;18.10;99.90
47606;DHT22;55448;51.330;4.946;2022-09-09T12:09:06;18.10;99.90
47606;DHT22;55448;51.330;4.946;2022-09-09T12:11:33;18.20;99.90
47606;DHT22;55448;51.330;4.946;2022-09-09T12:13:59;18.30;99.90
47606;DHT22;55448;51.330;4.946;2022-09-09T12:16:33;18.50;99.90
47606;DHT22;55448;51.330;4.946;2022-09-09T12:19:13;18.70;99.90
47606;DHT22;55448;51.330;4.946;2022-09-09T12:27:28;18.70;99.90
47606;DHT22;55448;51.330;4.946;2022-09-09T12:32:24;18.90;99.90
47606;DHT22;55448;51.330;4.946;2022-09-09T12:34:54;18.90;99.90
47606;DHT22;55448;51.330;4.946;2022-09-09T12:40:06;18.90;99.90
47606;DHT22;55448;51.330;4.946;2022-09-09T12:42:32;18.70;99.90
47606;DHT22;55448;51.330;4.946;2022-09-09T12:44:59;18.60;99.90
47606;DHT22;55448;51.330;4.946;2022-09-09T12:50:03;18.50;99.90
47606;DHT22;55448;51.330;4.946;2022-09-09T12:52:30;18.40;99.90
47606;DHT22;55448;51.330;4.946;2022-09-09T12:54:58;18.40;99.90
47606;DHT22;55448;51.330;4.946;2022-09-09T12:57:24;18.30;99.90
47606;DHT22;55448;51.330;4.946;2022-09-09T12:59:50;18.10;99.90
47606;DHT22;55448;51.330;4.946;2022-09-09T13:02:23;18.00;99.90
47606;DHT22;55448;51.330;4.946;2022-09-09T13:04:50;18.00;99.90
47606;DHT22;55448;51.330;4.946;2022-09-09T13:07:17;18.00;99.90
47606;DHT22;55448;51.330;4.946;2022-09-09T13:09:43;18.00;99.90
47606;DHT22;55448;51.330;4.946;2022-09-09T13:12:19;18.00;99.90
47606;DHT22;55448;51.330;4.946;2022-09-09T13:14:46;18.20;99.90
47606;DHT22;55448;51.330;4.946;2022-09-09T13:17:22;18.30;99.90
47606;DHT22;55448;51.330;4.946;2022-09-09T13:19:48;18.50;99.90
47606;DHT22;55448;51.330;4.946;2022-09-09T13:22:29;18.50;99.90
47606;DHT22;55448;51.330;4.946;2022-09-09T13:25:06;18.70;99.90
47606;DHT22;55448;51.330;4.946;2022-09-09T13:27:50;18.70;99.90
47606;DHT22;55448;51.330;4.946;2022-09-09T13:30:28;19.10;99.90
47606;DHT22;55448;51.330;4.946;2022-09-09T13:33:05;19.50;99.90
47606;DHT22;55448;51.330;4.946;2022-09-09T13:35:30;19.50;99.90
47606;DHT22;55448;51.330;4.946;2022-09-09T13:37:56;19.30;99.90
47606;DHT22;55448;51.330;4.946;2022-09-09T13:40:23;19.10;99.90
47606;DHT22;55448;51.330;4.946;2022-09-09T13:42:53;19.10;99.90
47606;DHT22;55448;51.330;4.946;2022-09-09T13:45:20;19.20;99.90
47606;DHT22;55448;51.330;4.946;2022-09-09T13:47:47;19.40;99.90
47606;DHT22;55448;51.330;4.946;2022-09-09T13:50:21;19.50;99.90
47606;DHT22;55448;51.330;4.946;2022-09-09T13:52:47;19.60;99.90
47606;DHT22;55448;51.330;4.946;2022-09-09T13:55:14;19.60;99.90
47606;DHT22;55448;51.330;4.946;2022-09-09T13:57:49;19.70;99.90
47606;DHT22;55448;51.330;4.946;2022-09-09T14:00:15;19.60;99.90
47606;DHT22;55448;51.330;4.946;2022-09-09T14:02:41;19.60;99.90
47606;DHT22;55448;51.330;4.946;2022-09-09T14:05:06;19.70;99.90
47606;DHT22;55448;51.330;4.946;2022-09-09T14:07:32;19.90;99.90
47606;DHT22;55448;51.330;4.946;2022-09-09T14:09:57;19.90;99.90
47606;DHT22;55448;51.330;4.946;2022-09-09T14:12:24;19.90;99.90
47606;DHT22;55448;51.330;4.946;2022-09-09T14:14:50;19.90;99.90
47606;DHT22;55448;51.330;4.946;2022-09-09T14:17:16;20.00;99.90
47606;DHT22;55448;51.330;4.946;2022-09-09T14:19:41;19.90;99.90
47606;DHT22;55448;51.330;4.946;2022-09-09T14:22:07;19.90;99.90
47606;DHT22;55448;51.330;4.946;2022-09-09T14:24:33;20.00;99.90
47606;DHT22;55448;51.330;4.946;2022-09-09T14:26:59;20.00;99.90
47606;DHT22;55448;51.330;4.946;2022-09-09T14:29:24;20.00;99.90
47606;DHT22;55448;51.330;4.946;2022-09-09T14:31:51;20.20;99.90
47606;DHT22;55448;51.330;4.946;2022-09-09T14:34:17;20.80;99.90
47606;DHT22;55448;51.330;4.946;2022-09-09T14:36:43;21.00;99.90
47606;DHT22;55448;51.330;4.946;2022-09-09T14:39:10;20.80;99.90
47606;DHT22;55448;51.330;4.946;2022-09-09T14:41:36;21.10;99.90
47606;DHT22;55448;51.330;4.946;2022-09-09T14:44:02;21.10;99.90
47606;DHT22;55448;51.330;4.946;2022-09-09T14:46:27;21.10;99.90
47606;DHT22;55448;51.330;4.946;2022-09-09T14:48:53;21.10;99.90
47606;DHT22;55448;51.330;4.946;2022-09-09T14:51:19;21.10;99.90
47606;DHT22;55448;51.330;4.946;2022-09-09T14:53:47;20.80;99.90
47606;DHT22;55448;51.330;4.946;2022-09-09T14:56:17;20.70;99.90
47606;DHT22;55448;51.330;4.946;2022-09-09T14:58:43;20.70;99.90
47606;DHT22;55448;51.330;4.946;2022-09-09T15:01:10;20.80;99.90
47606;DHT22;55448;51.330;4.946;2022-09-09T15:03:36;20.80;99.90
47606;DHT22;55448;51.330;4.946;2022-09-09T15:06:12;20.80;99.90
47606;DHT22;55448;51.330;4.946;2022-09-09T15:08:39;20.70;99.90
47606;DHT22;55448;51.330;4.946;2022-09-09T15:11:05;20.50;99.90
47606;DHT22;55448;51.330;4.946;2022-09-09T15:13:35;20.80;99.90
47606;DHT22;55448;51.330;4.946;2022-09-09T15:16:05;20.90;99.90
47606;DHT22;55448;51.330;4.946;2022-09-09T15:18:31;20.90;99.90
47606;DHT22;55448;51.330;4.946;2022-09-09T15:21:02;21.20;99.90
47606;DHT22;55448;51.330;4.946;2022-09-09T15:23:28;20.90;99.90
47606;DHT22;55448;51.330;4.946;2022-09-09T15:25:56;20.70;99.90
47606;DHT22;55448;51.330;4.946;2022-09-09T15:28:21;20.90;99.90
47606;DHT22;55448;51.330;4.946;2022-09-09T15:30:51;21.50;99.90
47606;DHT22;55448;51.330;4.946;2022-09-09T15:33:19;22.10;99.90
47606;DHT22;55448;51.330;4.946;2022-09-09T15:35:45;22.10;99.90
47606;DHT22;55448;51.330;4.946;2022-09-09T15:38:11;21.80;99.90
47606;DHT22;55448;51.330;4.946;2022-09-09T15:40:38;21.70;99.90
47606;DHT22;55448;51.330;4.946;2022-09-09T15:43:04;21.50;99.90
47606;DHT22;55448;51.330;4.946;2022-09-09T15:45:31;21.30;99.90
47606;DHT22;55448;51.330;4.946;2022-09-09T15:48:01;21.40;99.90
47606;DHT22;55448;51.330;4.946;2022-09-09T15:50:27;21.20;99.90
47606;DHT22;55448;51.330;4.946;2022-09-09T15:52:54;20.90;99.90
47606;DHT22;55448;51.330;4.946;2022-09-09T15:55:20;20.50;99.90
47606;DHT22;55448;51.330;4.946;2022-09-09T15:57:45;20.70;99.90
47606;DHT22;55448;51.330;4.946;2022-09-09T16:00:11;20.80;99.90
47606;DHT22;55448;51.330;4.946;2022-09-09T16:02:38;20.70;99.90
47606;DHT22;55448;51.330;4.946;2022-09-09T16:05:04;20.50;99.90
47606;DHT22;55448;51.330;4.946;2022-09-09T16:07:30;20.60;99.90
47606;DHT22;55448;51.330;4.946;2022-09-09T16:09:55;20.80;99.90
47606;DHT22;55448;51.330;4.946;2022-09-09T16:12:21;21.40;99.90
47606;DHT22;55448;51.330;4.946;2022-09-09T16:14:46;21.90;99.90
47606;DHT22;55448;51.330;4.946;2022-09-09T16:17:12;22.00;99.90
47606;DHT22;55448;51.330;4.946;2022-09-09T16:19:37;21.80;99.90
47606;DHT22;55448;51.330;4.946;2022-09-09T16:22:03;21.70;99.90
47606;DHT22;55448;51.330;4.946;2022-09-09T16:24:29;21.50;99.90
47606;DHT22;55448;51.330;4.946;2022-09-09T16:26:55;21.20;99.90
47606;DHT22;55448;51.330;4.946;2022-09-09T16:29:21;20.90;99.90
47606;DHT22;55448;51.330;4.946;2022-09-09T16:31:48;20.40;99.90
47606;DHT22;55448;51.330;4.946;2022-09-09T16:34:14;20.40;99.90
47606;DHT22;55448;51.330;4.946;2022-09-09T16:36:40;20.20;99.90
47606;DHT22;55448;51.330;4.946;2022-09-09T16:39:07;20.00;99.90
47606;DHT22;55448;51.330;4.946;2022-09-09T16:41:34;19.90;99.90
47606;DHT22;55448;51.330;4.946;2022-09-09T16:44:01;19.70;99.90
47606;DHT22;55448;51.330;4.946;2022-09-09T16:46:28;19.80;99.90
47606;DHT22;55448;51.330;4.946;2022-09-09T16:48:55;19.90;99.90
47606;DHT22;55448;51.330;4.946;2022-09-09T16:51:22;19.80;99.90
47606;DHT22;55448;51.330;4.946;2022-09-09T16:53:49;19.70;99.90
47606;DHT22;55448;51.330;4.946;2022-09-09T16:56:19;19.60;99.90
47606;DHT22;55448;51.330;4.946;2022-09-09T16:58:49;19.60;99.90
47606;DHT22;55448;51.330;4.946;2022-09-09T17:01:15;19.50;99.90
47606;DHT22;55448;51.330;4.946;2022-09-09T17:03:40;19.50;99.90
47606;DHT22;55448;51.330;4.946;2022-09-09T17:06:10;19.50;99.90
47606;DHT22;55448;51.330;4.946;2022-09-09T17:08:36;19.40;99.90
47606;DHT22;55448;51.330;4.946;2022-09-09T17:11:02;18.80;99.90
47606;DHT22;55448;51.330;4.946;2022-09-09T17:13:28;18.20;99.90
47606;DHT22;55448;51.330;4.946;2022-09-09T17:15:53;17.60;99.90
47606;DHT22;55448;51.330;4.946;2022-09-09T17:18:19;17.30;99.90
47606;DHT22;55448;51.330;4.946;2022-09-09T17:20:46;17.30;99.90
47606;DHT22;55448;51.330;4.946;2022-09-09T17:23:11;17.30;99.90
47606;DHT22;55448;51.330;4.946;2022-09-09T17:25:40;17.50;99.90
47606;DHT22;55448;51.330;4.946;2022-09-09T17:28:06;17.50;99.90
47606;DHT22;55448;51.330;4.946;2022-09-09T17:30:35;17.40;99.90
47606;DHT22;55448;51.330;4.946;2022-09-09T17:33:02;17.30;99.90